Pagina principale
METAR-TAF:

METAR-TAF

Aeroporti :

Sanford Seacoast Regional Airport

Sanford, Maine, Stati Uniti

latitudine: 43-24N, longitudine: 070-43W, altezza: 74 m

Osservazione

Il bollettino è stato emesso 28 minuti fa, alle 21:45 UTC
Vento 5 kt da nord-est
Temperature 11°C
Umidità 71%
Pressione 1012 hPa
Visibilità: 16.1 km
Nubi sparse ad un'altezza di 2400 ft
Cielo coperto ad un'altezza di 3200 ft

METAR: KSFM 232145Z AUTO 04005KT 10SM SCT024 OVC032 11/06 A2989 RMK AO2 PNO $

Ora: 18:13 (22:13 UTC)


TAF: mancante

Osservazioni e previsioni meteorologiche di più di 4000 aeroporti (messaggi METAR e TAF).

Le stazioni disponibili sono rappresentate dai dischi gialli e rossi sulla carta.

Puntare il mouse per vedere il nome della stazione.

Clicca sopra per visualizzare le osservazioni e previsioni meteorologiche.

Per cambiare la mappa : fare clic sui pulsanti verdi con una croce nera per ingrandire, il pulsante verde con un trattino per diminuire, o sulla freccia verde per le mappe adiacenti.


METAR-TAF: